SCVH weather

La Victoria de Chacabuco Airport
Santiago, Santiago Metropolitan Region, Chile

Public forecast

Using degrees Celsius for public forecast. Weather courtesy of forecast.io.

Closest aviation weather report (METAR) to La Victoria de Chacabuco Airport

Report is more than 6 hours old.

Closest report is Lipangui Airport, 18.3 nm (33.8 km) SSW. Retrieved 2019/09/12 06:00 UTC (7 months ago):

SCKL 120600Z 01009KT 9999 SCT040 24/19 A2994 NOSIG

Closest aviation forecast (TAF) to La Victoria de Chacabuco Airport

Closest forecast is Comodoro Arturo Merino Benítez International Airport, 20.9 nm (38.7 km) S. Retrieved 2020/04/08 18:00 UTC (1 hour ago):

TAF SCEL 081619Z 0818/0918 21012KT CAVOK TX26/0819Z TN09/0911Z BECMG 0902/0904 15004KT TEMPO 0909/0913 VRB02KT 6000 FEW008 BECMG 0916/0918 20010KT